Time;durP1;ratioP1;P1;durP2;ratioP2;P2;SDS_P1;SDS_P2;PMS_P1;PMS_P2;Temp;Humidity;BMP_temperature;BMP_pressure;BME280_temperature;BME280_humidity;BME280_pressure;Samples;Min_cycle;Max_cycle;Signal;HPM_P1;HPM_P2
2022/03/21 00:02:22;;;;;;;19.73;11.90;;;10.60;77.90;;;;;;5053245;28;20744;-63
2022/03/21 00:04:48;;;;;;;19.30;11.57;;;10.50;76.80;;;;;;5054962;28;20021;-63
2022/03/21 00:07:14;;;;;;;18.27;10.98;;;10.40;75.90;;;;;;5056524;28;20468;-64
2022/03/21 00:09:39;;;;;;;18.77;11.88;;;10.30;76.40;;;;;;5056383;28;20079;-64
2022/03/21 00:12:05;;;;;;;20.03;11.97;;;10.30;77.10;;;;;;5054907;28;20117;-63
2022/03/21 00:14:31;;;;;;;21.67;11.82;;;10.30;77.30;;;;;;5056206;28;20457;-62
2022/03/21 00:16:58;;;;;;;20.03;11.17;;;10.20;76.60;;;;;;5054910;28;20051;-63
2022/03/21 00:19:24;;;;;;;20.23;12.48;;;10.20;76.80;;;;;;5055445;28;20036;-65
2022/03/21 00:21:49;;;;;;;17.00;11.20;;;10.10;77.00;;;;;;5054652;28;20492;-64
2022/03/21 00:24:15;;;;;;;17.13;11.00;;;10.10;77.30;;;;;;5055703;28;20024;-63
2022/03/21 00:26:40;;;;;;;18.87;11.30;;;10.00;77.60;;;;;;5055893;28;20029;-63
2022/03/21 00:29:07;;;;;;;18.47;11.13;;;10.10;77.40;;;;;;5055773;28;20021;-64
2022/03/21 00:31:35;;;;;;;18.95;11.38;;;10.00;77.70;;;;;;5055626;28;20021;-64
2022/03/21 00:34:01;;;;;;;18.20;11.50;;;10.00;78.50;;;;;;5055616;28;20027;-64
2022/03/21 00:36:26;;;;;;;19.30;11.68;;;9.90;78.40;;;;;;5055604;28;20029;-63
2022/03/21 00:38:52;;;;;;;20.20;11.93;;;9.90;78.40;;;;;;5056092;28;20032;-63
2022/03/21 00:41:18;;;;;;;19.23;11.63;;;9.90;78.40;;;;;;5055996;28;20318;-62
2022/03/21 00:43:44;;;;;;;19.92;11.77;;;9.80;79.10;;;;;;5055489;28;20437;-63
2022/03/21 00:46:10;;;;;;;17.77;11.52;;;9.80;79.60;;;;;;5055988;28;20064;-60
2022/03/21 00:48:35;;;;;;;18.67;12.35;;;9.70;79.20;;;;;;5055993;28;20052;-62
2022/03/21 00:51:01;;;;;;;17.73;10.87;;;9.70;79.40;;;;;;5055909;28;20418;-63
2022/03/21 00:53:27;;;;;;;17.37;11.37;;;9.70;79.50;;;;;;5056005;28;20035;-64
2022/03/21 00:55:55;;;;;;;17.53;11.20;;;9.60;79.60;;;;;;5055495;28;20581;-64
2022/03/21 00:58:21;;;;;;;19.33;11.80;;;9.60;79.70;;;;;;5055360;28;20033;-63
2022/03/21 01:00:47;;;;;;;16.98;11.20;;;9.60;80.10;;;;;;5055403;28;20390;-63
2022/03/21 01:03:13;;;;;;;18.23;10.93;;;9.50;80.60;;;;;;5053914;28;20033;-62
2022/03/21 01:05:38;;;;;;;19.75;11.18;;;9.50;80.70;;;;;;5055438;28;20514;-63
2022/03/21 01:08:05;;;;;;;19.10;12.60;;;9.50;80.60;;;;;;5055871;28;20508;-62
2022/03/21 01:10:32;;;;;;;19.15;11.30;;;9.50;80.60;;;;;;5055690;28;20025;-63
2022/03/21 01:12:58;;;;;;;23.90;12.40;;;9.50;80.70;;;;;;5055345;28;20079;-64
2022/03/21 01:15:26;;;;;;;19.27;11.70;;;9.50;81.10;;;;;;5055366;28;20056;-65
2022/03/21 01:17:53;;;;;;;22.25;12.23;;;9.40;81.20;;;;;;5055048;28;20053;-64
2022/03/21 01:20:21;;;;;;;20.80;12.52;;;9.40;82.80;;;;;;5055071;28;20108;-62
2022/03/21 01:22:47;;;;;;;24.15;14.23;;;9.60;82.70;;;;;;5055060;28;20029;-62
2022/03/21 01:25:13;;;;;;;22.38;12.23;;;9.50;81.30;;;;;;5053688;28;20086;-63
2022/03/21 01:27:40;;;;;;;24.95;15.45;;;9.40;81.10;;;;;;5055516;28;20031;-63
2022/03/21 01:30:11;;;;;;;32.75;18.75;;;9.40;82.80;;;;;;5053652;28;20040;-62
2022/03/21 01:32:37;;;;;;;24.27;14.30;;;9.30;82.30;;;;;;5055528;28;20373;-64
2022/03/21 01:35:04;;;;;;;25.77;14.45;;;9.20;82.50;;;;;;5053606;28;20560;-62
2022/03/21 01:37:31;;;;;;;22.73;13.77;;;9.30;82.70;;;;;;5054967;28;20124;-63
2022/03/21 01:39:56;;;;;;;18.95;11.70;;;9.20;83.40;;;;;;5055437;28;20457;-63
2022/03/21 01:42:22;;;;;;;21.80;12.43;;;9.20;82.50;;;;;;5054940;28;20112;-65
2022/03/21 01:44:52;;;;;;;25.43;13.87;;;9.20;83.20;;;;;;5053403;28;20334;-63
2022/03/21 01:47:18;;;;;;;20.30;11.73;;;9.20;84.80;;;;;;5054896;28;20060;-62
2022/03/21 01:49:44;;;;;;;20.33;12.27;;;9.10;84.60;;;;;;5053825;28;20025;-64
2022/03/21 01:52:10;;;;;;;21.27;11.60;;;9.10;84.30;;;;;;5055009;28;20486;-61
2022/03/21 01:57:20;;;;;;;20.08;11.40;;;9.10;85.00;;;;;;5069172;22;20566;-63
2022/03/21 01:59:48;;;;;;;21.52;13.02;;;9.10;84.40;;;;;;5053240;28;20032;-63
2022/03/21 02:02:14;;;;;;;21.08;12.07;;;9.00;85.50;;;;;;5054323;28;20392;-65
2022/03/21 02:04:39;;;;;;;22.90;13.63;;;8.90;85.30;;;;;;5054117;28;20063;-64
2022/03/21 02:07:05;;;;;;;20.10;11.20;;;9.00;86.10;;;;;;5054101;28;20121;-64
2022/03/21 02:09:31;;;;;;;19.67;11.80;;;9.00;86.20;;;;;;5054407;28;20025;-64
2022/03/21 02:11:57;;;;;;;21.50;12.07;;;8.90;85.80;;;;;;5052785;28;20318;-64
2022/03/21 02:14:23;;;;;;;20.48;12.15;;;8.90;85.90;;;;;;5054155;28;20033;-64
2022/03/21 02:16:48;;;;;;;18.45;11.30;;;8.90;86.10;;;;;;5053709;28;20040;-64
2022/03/21 02:19:20;;;;;;;17.23;11.43;;;8.80;86.30;;;;;;5054081;28;20501;-64
2022/03/21 02:22:29;;;;;;;21.35;11.75;;;8.80;86.50;;;;;;5053727;28;20108;-64
2022/03/21 02:25:18;;;;;;;18.88;11.73;;;8.70;86.30;;;;;;5053574;28;20103;-64
2022/03/21 02:27:46;;;;;;;20.80;12.43;;;8.70;87.00;;;;;;5053794;28;20021;-64
2022/03/21 02:30:12;;;;;;;21.02;12.70;;;8.70;87.40;;;;;;5052365;28;20025;-64
2022/03/21 02:32:38;;;;;;;17.60;11.10;;;8.60;87.80;;;;;;5053481;28;20066;-64
2022/03/21 02:35:05;;;;;;;19.77;12.02;;;8.60;88.00;;;;;;5053996;28;20424;-64
2022/03/21 02:37:31;;;;;;;20.50;12.38;;;8.60;88.50;;;;;;5053390;28;20024;-63
2022/03/21 02:39:59;;;;;;;20.17;11.80;;;8.50;88.40;;;;;;5053562;28;20021;-64
2022/03/21 02:42:25;;;;;;;19.67;11.85;;;8.50;89.40;;;;;;5053930;28;20053;-64
2022/03/21 02:44:51;;;;;;;20.20;11.33;;;8.40;90.00;;;;;;5052007;28;20056;-64
2022/03/21 02:47:16;;;;;;;18.23;11.00;;;8.40;89.30;;;;;;5053845;28;20260;-64
2022/03/21 02:49:42;;;;;;;19.83;12.00;;;8.40;89.80;;;;;;5052174;28;20096;-64
2022/03/21 02:52:10;;;;;;;26.33;11.70;;;8.40;90.00;;;;;;5053376;28;20021;-64
2022/03/21 02:54:35;;;;;;;21.00;11.85;;;8.30;90.00;;;;;;5053359;28;20053;-64
2022/03/21 02:57:02;;;;;;;18.53;11.40;;;8.30;90.50;;;;;;5054689;28;20339;-64
2022/03/21 02:59:27;;;;;;;17.30;10.93;;;8.30;90.20;;;;;;5056344;28;20057;-62
2022/03/21 03:01:56;;;;;;;18.83;11.15;;;8.30;90.30;;;;;;5054836;28;20029;-64
2022/03/21 03:04:26;;;;;;;21.48;11.77;;;8.30;90.60;;;;;;5053517;28;20059;-64
2022/03/21 03:06:52;;;;;;;18.88;11.15;;;8.30;90.80;;;;;;5053237;28;20049;-64
2022/03/21 03:09:18;;;;;;;21.40;12.00;;;8.30;90.70;;;;;;5053096;28;20071;-62
2022/03/21 03:11:43;;;;;;;19.33;11.82;;;8.30;90.60;;;;;;5051848;28;20417;-64
2022/03/21 03:14:09;;;;;;;19.03;10.77;;;8.30;90.80;;;;;;5053217;28;20492;-64
2022/03/21 03:16:35;;;;;;;15.35;10.55;;;8.30;91.00;;;;;;5051747;28;20029;-64
2022/03/21 03:19:01;;;;;;;17.47;10.80;;;8.20;91.00;;;;;;5051733;28;20043;-64
2022/03/21 03:21:30;;;;;;;17.52;10.80;;;8.20;91.10;;;;;;5052972;28;20067;-64
2022/03/21 03:23:59;;;;;;;20.45;12.02;;;8.20;91.50;;;;;;5052887;28;20104;-64
2022/03/21 03:26:24;;;;;;;18.77;11.57;;;8.20;92.10;;;;;;5051709;28;20432;-64
2022/03/21 03:28:50;;;;;;;18.70;11.73;;;8.20;92.30;;;;;;5052049;28;20075;-64
2022/03/21 03:31:17;;;;;;;18.93;11.23;;;8.10;92.50;;;;;;5053273;28;20108;-64
2022/03/21 03:33:45;;;;;;;16.98;11.40;;;8.10;92.30;;;;;;5052812;28;20108;-65
2022/03/21 03:36:11;;;;;;;19.83;11.38;;;8.10;92.70;;;;;;5053003;28;20075;-63
2022/03/21 03:38:37;;;;;;;17.55;10.75;;;8.10;92.60;;;;;;5054369;28;20024;-63
2022/03/21 03:41:03;;;;;;;20.20;11.80;;;8.00;92.90;;;;;;5057202;28;20086;-63
2022/03/21 03:43:29;;;;;;;19.35;10.80;;;8.00;93.10;;;;;;5057108;28;20534;-64
2022/03/21 03:45:57;;;;;;;17.08;11.00;;;7.90;93.20;;;;;;5056817;28;20039;-63
2022/03/21 03:48:22;;;;;;;17.48;10.70;;;7.90;92.70;;;;;;5056572;28;20021;-64
2022/03/21 03:50:48;;;;;;;22.53;12.33;;;7.80;92.50;;;;;;5056773;28;20025;-64
2022/03/21 03:53:15;;;;;;;19.98;11.70;;;7.70;92.70;;;;;;5056733;28;20096;-64
2022/03/21 03:55:40;;;;;;;19.13;11.60;;;7.60;92.90;;;;;;5055348;28;20496;-65
2022/03/21 03:58:06;;;;;;;17.00;10.80;;;7.60;93.20;;;;;;5056605;28;20041;-64
2022/03/21 04:00:32;;;;;;;21.17;11.30;;;7.50;93.30;;;;;;5056580;28;20329;-64
2022/03/21 04:05:41;;;;;;;21.08;11.65;;;7.50;93.60;;;;;;5056755;28;20504;-64
2022/03/21 04:08:07;;;;;;;21.17;12.13;;;7.40;93.70;;;;;;5055048;28;20025;-64
2022/03/21 04:10:32;;;;;;;18.50;10.90;;;7.40;93.80;;;;;;5054958;28;20041;-64
2022/03/21 04:12:58;;;;;;;17.50;11.05;;;7.40;93.90;;;;;;5056272;28;20108;-63
2022/03/21 04:15:24;;;;;;;18.93;11.47;;;7.40;94.10;;;;;;5056872;28;20107;-63
2022/03/21 04:17:50;;;;;;;22.03;12.00;;;7.40;94.10;;;;;;5060472;28;20025;-65
2022/03/21 04:20:16;;;;;;;17.52;11.65;;;7.40;94.20;;;;;;5057422;28;20296;-64
2022/03/21 04:22:42;;;;;;;20.88;11.27;;;7.40;94.60;;;;;;5054659;28;20072;-64
2022/03/21 04:25:10;;;;;;;21.40;10.83;;;7.50;94.30;;;;;;5054704;28;20178;-64
2022/03/21 04:27:36;;;;;;;19.02;10.35;;;7.50;94.40;;;;;;5054719;28;20021;-65
2022/03/21 04:30:04;;;;;;;18.70;10.77;;;7.50;94.40;;;;;;5056231;28;20025;-64
2022/03/21 04:32:30;;;;;;;20.10;11.27;;;7.50;94.60;;;;;;5056012;28;20033;-63
2022/03/21 04:34:55;;;;;;;18.23;11.07;;;7.60;95.00;;;;;;5056075;28;20496;-63
2022/03/21 04:37:22;;;;;;;19.70;11.00;;;7.80;94.30;;;;;;5054407;28;20033;-63
2022/03/21 04:39:47;;;;;;;19.25;11.30;;;7.80;94.20;;;;;;5055896;28;20439;-63
2022/03/21 04:42:13;;;;;;;17.33;10.97;;;7.80;94.40;;;;;;5056234;28;20029;-62
2022/03/21 04:44:39;;;;;;;17.50;11.15;;;7.90;94.40;;;;;;5055787;28;20021;-64
2022/03/21 04:47:08;;;;;;;;;;;8.10;93.60;;;;;;5056003;28;20025;-64
2022/03/21 04:49:34;;;;;;;16.38;10.10;;;8.10;94.00;;;;;;5055108;28;20347;-64
2022/03/21 04:52:00;;;;;;;18.00;10.97;;;8.20;93.90;;;;;;5055629;28;20060;-64
2022/03/21 04:54:28;;;;;;;17.90;10.77;;;8.20;93.60;;;;;;5054416;28;20036;-64
2022/03/21 04:56:55;;;;;;;17.55;10.48;;;8.10;93.60;;;;;;5053878;28;20064;-64
2022/03/21 04:59:21;;;;;;;16.52;10.20;;;8.10;93.80;;;;;;5054172;28;20037;-64
2022/03/21 05:01:47;;;;;;;19.17;11.30;;;8.00;93.90;;;;;;5055614;28;20032;-64
2022/03/21 05:04:12;;;;;;;15.40;10.45;;;8.00;94.30;;;;;;5055509;28;20033;-64
2022/03/21 05:06:39;;;;;;;17.63;10.80;;;8.20;94.60;;;;;;5055227;28;20035;-64
2022/03/21 05:09:05;;;;;;;18.92;11.35;;;8.20;94.10;;;;;;5055284;28;20024;-64
2022/03/21 05:11:31;;;;;;;19.08;11.48;;;8.20;94.40;;;;;;5056440;28;20029;-65
2022/03/21 05:13:57;;;;;;;18.77;10.90;;;8.20;94.10;;;;;;5054073;28;20028;-64
2022/03/21 05:16:23;;;;;;;17.40;10.57;;;8.20;94.00;;;;;;5055426;28;20029;-64
2022/03/21 05:18:50;;;;;;;19.17;11.10;;;8.20;93.90;;;;;;5053744;28;20458;-64
2022/03/21 05:21:17;;;;;;;17.15;11.07;;;8.20;94.30;;;;;;5056035;28;20029;-64
2022/03/21 05:31:55;;;;;;;22.92;12.52;;;8.00;94.40;;;;;;5055719;28;20032;-64
2022/03/21 05:37:05;;;;;;;16.40;10.95;;;7.90;94.50;;;;;;5056306;28;20027;-64
2022/03/21 05:39:31;;;;;;;21.93;10.50;;;7.80;94.70;;;;;;5054584;28;20021;-65
2022/03/21 05:41:56;;;;;;;19.57;11.33;;;7.70;95.00;;;;;;5055550;28;20052;-65
2022/03/21 05:44:24;;;;;;;18.57;11.60;;;7.60;95.30;;;;;;5054719;28;20326;-65
2022/03/21 05:46:50;;;;;;;20.10;11.40;;;7.50;95.50;;;;;;5056312;28;20089;-66
2022/03/21 05:49:15;;;;;;;20.35;11.68;;;7.40;95.70;;;;;;5054494;28;20052;-66
2022/03/21 05:51:41;;;;;;;19.33;11.32;;;7.40;96.10;;;;;;5055117;28;20117;-66
2022/03/21 05:54:09;;;;;;;19.60;11.70;;;7.40;96.10;;;;;;5054612;28;20028;-66
2022/03/21 05:56:36;;;;;;;18.35;11.63;;;7.40;96.20;;;;;;5054626;28;20037;-66
2022/03/21 06:01:48;;;;;;;17.88;11.40;;;7.50;96.40;;;;;;5057543;28;20091;-66
2022/03/21 06:04:15;;;;;;;19.98;12.70;;;7.50;96.60;;;;;;5057729;28;20025;-66
2022/03/21 06:06:41;;;;;;;19.48;10.95;;;7.50;96.80;;;;;;5056022;28;20040;-66
2022/03/21 06:09:07;;;;;;;17.27;10.60;;;7.40;96.90;;;;;;5054239;28;20025;-65
2022/03/21 06:11:36;;;;;;;17.83;10.70;;;7.40;97.00;;;;;;5055561;28;20496;-65
2022/03/21 06:14:04;;;;;;;20.15;11.50;;;7.40;97.10;;;;;;5054855;28;20025;-66
2022/03/21 06:16:30;;;;;;;16.83;11.07;;;7.50;97.20;;;;;;5054166;28;20025;-65
2022/03/21 06:18:59;;;;;;;18.75;10.88;;;7.50;97.30;;;;;;5052800;28;20029;-66
2022/03/21 06:21:25;;;;;;;25.90;12.55;;;7.50;97.40;;;;;;5054219;28;20021;-65
2022/03/21 06:23:52;;;;;;;19.08;11.20;;;7.50;97.50;;;;;;5053908;28;20024;-67
2022/03/21 06:26:17;;;;;;;18.95;11.18;;;7.50;97.50;;;;;;5053002;28;20378;-67
2022/03/21 06:28:43;;;;;;;19.00;11.67;;;7.50;97.60;;;;;;5054089;28;20079;-67
2022/03/21 06:31:08;;;;;;;26.47;16.70;;;7.50;97.60;;;;;;5054078;28;20359;-67
2022/03/21 06:33:34;;;;;;;23.40;11.83;;;7.60;97.70;;;;;;5054037;28;20436;-65
2022/03/21 06:36:02;;;;;;;20.10;11.57;;;7.60;97.70;;;;;;5053392;28;20029;-66
2022/03/21 06:38:28;;;;;;;19.17;11.23;;;7.70;97.60;;;;;;5053494;28;20431;-66
2022/03/21 06:40:55;;;;;;;20.02;11.75;;;7.80;97.50;;;;;;5054257;28;20025;-66
2022/03/21 06:43:22;;;;;;;18.23;11.48;;;7.90;97.40;;;;;;5056077;28;20025;-67
2022/03/21 06:45:50;;;;;;;17.25;10.88;;;8.00;97.20;;;;;;5056941;28;20025;-66
2022/03/21 06:48:20;;;;;;;21.45;11.48;;;8.10;97.00;;;;;;5058772;28;20071;-67
2022/03/21 06:50:46;;;;;;;18.85;11.05;;;8.20;96.90;;;;;;5059122;28;20021;-67
2022/03/21 06:53:13;;;;;;;19.15;11.23;;;8.20;96.80;;;;;;5059745;28;20082;-67
2022/03/21 06:55:39;;;;;;;17.70;11.80;;;8.30;96.80;;;;;;5062903;28;20032;-66
2022/03/21 06:58:06;;;;;;;20.10;12.25;;;8.30;96.80;;;;;;5063902;28;20037;-65
2022/03/21 07:00:32;;;;;;;19.30;11.60;;;8.30;96.90;;;;;;5055339;28;20037;-66
2022/03/21 07:02:57;;;;;;;16.55;11.10;;;8.30;96.70;;;;;;5056013;28;20107;-67
2022/03/21 07:05:26;;;;;;;15.87;10.67;;;8.30;96.80;;;;;;5057133;28;20541;-67
2022/03/21 07:07:52;;;;;;;19.50;11.35;;;8.40;96.90;;;;;;5056544;28;20029;-65
2022/03/21 07:10:17;;;;;;;17.85;10.70;;;8.50;96.60;;;;;;5056596;28;20021;-66
2022/03/21 07:12:43;;;;;;;18.33;11.13;;;8.50;96.60;;;;;;5056467;28;20025;-65
2022/03/21 07:15:09;;;;;;;18.10;11.50;;;8.50;96.70;;;;;;5058004;28;20021;-65
2022/03/21 07:17:34;;;;;;;18.60;11.33;;;8.50;96.80;;;;;;5057693;28;20028;-67
2022/03/21 07:20:00;;;;;;;18.73;11.00;;;8.50;96.70;;;;;;5058082;28;20358;-66
2022/03/21 07:22:26;;;;;;;16.40;10.88;;;8.50;96.80;;;;;;5060515;28;20505;-67
2022/03/21 07:24:52;;;;;;;20.88;11.70;;;8.60;96.70;;;;;;5059427;28;20025;-67
2022/03/21 07:27:18;;;;;;;19.55;11.07;;;8.70;96.40;;;;;;5058335;28;20049;-67
2022/03/21 07:29:43;;;;;;;24.37;12.20;;;8.80;96.30;;;;;;5059997;28;20028;-66
2022/03/21 07:32:09;;;;;;;21.20;11.30;;;8.80;96.00;;;;;;5060125;28;20013;-66
2022/03/21 07:34:35;;;;;;;20.60;11.40;;;8.90;96.00;;;;;;5061017;28;20040;-67
2022/03/21 07:37:00;;;;;;;18.80;10.80;;;9.00;96.00;;;;;;5060889;28;20021;-66
2022/03/21 07:39:26;;;;;;;19.87;11.57;;;9.00;95.60;;;;;;5059036;28;20507;-67
2022/03/21 07:41:59;;;;;;;19.33;11.13;;;9.00;95.40;;;;;;5058676;28;20386;-66
2022/03/21 07:47:20;;;;;;;16.40;11.05;;;9.20;95.30;;;;;;5059875;28;20052;-67
2022/03/21 07:49:48;;;;;;;19.23;11.63;;;9.20;95.10;;;;;;5059158;28;20032;-67
2022/03/21 07:52:14;;;;;;;17.35;12.05;;;9.30;94.80;;;;;;5058359;28;20093;-66
2022/03/21 07:54:40;;;;;;;26.60;12.23;;;9.40;94.90;;;;;;5058842;28;20097;-66
2022/03/21 07:57:09;;;;;;;23.63;11.80;;;9.50;94.80;;;;;;5058552;28;20152;-66
2022/03/21 07:59:36;;;;;;;22.42;13.75;;;9.60;94.60;;;;;;5052765;28;20029;-67
2022/03/21 08:02:03;;;;;;;19.73;10.77;;;9.70;94.40;;;;;;5052904;28;20075;-67
2022/03/21 08:04:31;;;;;;;21.80;12.18;;;9.80;94.10;;;;;;5052477;28;20040;-67
2022/03/21 08:06:57;;;;;;;17.98;11.27;;;9.80;93.60;;;;;;5052699;28;20079;-67
2022/03/21 08:09:24;;;;;;;;;;;9.90;93.70;;;;;;5051854;28;20431;-67
2022/03/21 08:11:50;;;;;;;21.02;12.73;;;10.00;93.30;;;;;;5052697;28;19905;-66
2022/03/21 08:14:16;;;;;;;20.33;11.50;;;10.10;93.20;;;;;;5052785;28;20367;-67
2022/03/21 08:16:42;;;;;;;20.20;11.38;;;10.20;92.70;;;;;;5052888;28;20029;-67
2022/03/21 08:19:07;;;;;;;19.48;10.93;;;10.30;92.70;;;;;;5050918;28;20061;-66
2022/03/21 08:21:33;;;;;;;19.37;12.53;;;10.40;92.50;;;;;;5052377;28;20029;-65
2022/03/21 08:23:59;;;;;;;18.05;11.75;;;10.60;91.90;;;;;;5053934;28;20105;-66
2022/03/21 08:26:24;;;;;;;20.95;12.23;;;10.60;91.80;;;;;;5056211;28;20028;-67
2022/03/21 08:28:50;;;;;;;22.07;11.90;;;10.70;91.40;;;;;;5057214;28;20021;-66
2022/03/21 08:31:15;;;;;;;20.53;13.17;;;10.80;91.20;;;;;;5054896;28;20021;-66
2022/03/21 08:33:41;;;;;;;18.70;11.30;;;10.90;91.20;;;;;;5055893;28;20400;-66
2022/03/21 08:36:08;;;;;;;22.23;12.57;;;11.00;90.80;;;;;;5056064;28;20454;-66
2022/03/21 08:38:34;;;;;;;18.95;11.82;;;11.00;91.00;;;;;;5056112;28;20028;-66
2022/03/21 08:41:00;;;;;;;17.30;11.67;;;11.10;90.20;;;;;;5056135;28;20513;-66
2022/03/21 08:43:27;;;;;;;19.77;12.10;;;11.20;89.90;;;;;;5056346;28;20056;-68
2022/03/21 08:45:52;;;;;;;18.02;11.25;;;11.30;88.30;;;;;;5057069;28;20420;-66
2022/03/21 08:48:18;;;;;;;22.97;11.17;;;11.50;88.10;;;;;;5055201;28;20021;-66
2022/03/21 08:50:44;;;;;;;19.83;12.07;;;11.70;87.10;;;;;;5056878;28;20021;-66
2022/03/21 08:53:10;;;;;;;19.08;12.18;;;11.70;86.30;;;;;;5056203;28;20051;-66
2022/03/21 08:55:36;;;;;;;16.50;11.50;;;11.80;86.30;;;;;;5056193;28;20055;-66
2022/03/21 08:58:01;;;;;;;18.67;11.45;;;12.00;86.00;;;;;;5055898;28;20033;-66
2022/03/21 09:00:27;;;;;;;16.97;11.47;;;12.30;84.50;;;;;;5056372;28;20053;-66
2022/03/21 09:02:54;;;;;;;19.27;12.23;;;12.60;82.90;;;;;;5055588;28;20027;-67
2022/03/21 09:05:21;;;;;;;19.85;11.95;;;12.80;81.80;;;;;;5055653;28;20052;-67
2022/03/21 09:07:47;;;;;;;20.55;11.52;;;12.90;81.20;;;;;;5055479;28;20029;-67
2022/03/21 09:10:14;;;;;;;21.85;12.75;;;13.20;80.70;;;;;;5055549;28;20025;-67
2022/03/21 09:12:43;;;;;;;14.75;11.35;;;14.40;78.80;;;;;;5058262;28;20021;-67
2022/03/21 09:15:09;;;;;;;18.33;12.02;;;15.90;72.90;;;;;;5057714;28;20098;-66
2022/03/21 09:17:38;;;;;;;16.67;12.07;;;17.60;69.00;;;;;;5055557;28;20544;-66
2022/03/21 09:20:05;;;;;;;15.73;12.27;;;19.40;64.40;;;;;;5055391;28;20041;-66
2022/03/21 09:22:31;;;;;;;18.75;12.70;;;20.90;59.70;;;;;;5055062;28;20115;-66
2022/03/21 09:24:57;;;;;;;18.77;12.32;;;22.40;56.40;;;;;;5053403;28;20515;-66
2022/03/21 09:27:22;;;;;;;;;;;23.20;54.20;;;;;;5055323;28;20025;-66
2022/03/21 09:29:48;;;;;;;17.75;12.10;;;24.30;51.90;;;;;;5055120;28;19940;-66
2022/03/21 09:32:15;;;;;;;19.60;12.35;;;25.90;49.70;;;;;;5055977;28;20027;-68
2022/03/21 09:34:40;;;;;;;15.75;13.23;;;26.80;48.00;;;;;;5055261;28;20025;-66
2022/03/21 09:37:07;;;;;;;15.90;12.93;;;27.20;46.30;;;;;;5054810;28;20029;-66
2022/03/21 09:39:33;;;;;;;18.65;13.38;;;26.10;46.20;;;;;;5055120;28;20049;-67
2022/03/21 09:42:00;;;;;;;17.58;12.80;;;25.90;45.70;;;;;;5055011;28;20021;-65
2022/03/21 09:44:26;;;;;;;15.43;12.93;;;25.10;46.10;;;;;;5054552;28;20083;-66
2022/03/21 09:46:54;;;;;;;16.38;13.15;;;24.90;47.20;;;;;;5054358;28;20100;-66
2022/03/21 09:49:25;;;;;;;18.65;15.75;;;25.40;46.70;;;;;;5054899;28;20163;-67
2022/03/21 09:51:53;;;;;;;17.33;12.48;;;26.30;46.30;;;;;;5053177;28;20017;-66
2022/03/21 09:54:19;;;;;;;16.60;12.77;;;27.20;44.90;;;;;;5053320;28;20032;-67
2022/03/21 09:56:45;;;;;;;13.93;12.32;;;27.70;44.30;;;;;;5054384;28;20025;-67
2022/03/21 09:59:10;;;;;;;19.35;14.57;;;28.40;43.60;;;;;;5054222;28;20117;-68
2022/03/21 10:01:41;;;;;;;14.93;12.43;;;28.80;43.10;;;;;;5054318;28;20098;-66
2022/03/21 10:04:08;;;;;;;14.23;12.18;;;28.90;42.20;;;;;;5055020;28;20052;-66
2022/03/21 10:06:40;;;;;;;16.80;12.20;;;29.10;42.60;;;;;;5054165;28;20057;-67
2022/03/21 10:09:14;;;;;;;14.85;12.98;;;29.00;41.60;;;;;;5054007;28;20048;-67
2022/03/21 10:11:49;;;;;;;16.88;11.90;;;29.20;41.60;;;;;;5054002;28;20025;-67
2022/03/21 10:14:33;;;;;;;15.98;13.15;;;29.60;41.50;;;;;;5054024;28;20142;-67
2022/03/21 10:17:09;;;;;;;14.80;13.10;;;28.50;41.60;;;;;;5053815;28;20021;-65
2022/03/21 10:19:55;;;;;;;15.32;13.15;;;28.50;41.60;;;;;;5054174;28;20025;-66
2022/03/21 10:22:22;;;;;;;14.93;13.32;;;28.50;41.50;;;;;;5054006;28;20560;-67
2022/03/21 10:24:49;;;;;;;15.20;13.60;;;28.40;41.30;;;;;;5053797;28;20066;-66
2022/03/21 10:27:28;;;;;;;19.10;12.52;;;27.10;42.60;;;;;;5054028;28;20025;-66
2022/03/21 10:30:00;;;;;;;18.33;13.98;;;27.70;41.90;;;;;;5053600;28;20020;-66
2022/03/21 10:32:37;;;;;;;18.88;13.70;;;27.40;41.40;;;;;;5053490;28;20017;-67
2022/03/21 10:35:11;;;;;;;17.13;13.05;;;27.60;42.00;;;;;;5053498;28;20029;-66
2022/03/21 10:37:49;;;;;;;16.73;12.98;;;28.30;41.80;;;;;;5052251;28;20025;-66
2022/03/21 10:40:40;;;;;;;16.38;12.82;;;29.10;41.20;;;;;;5053557;28;20031;-67
2022/03/21 10:43:09;;;;;;;19.98;12.73;;;29.70;40.60;;;;;;5053914;28;20443;-66
2022/03/21 10:45:35;;;;;;;23.23;13.43;;;30.00;40.70;;;;;;5052102;28;20045;-67
2022/03/21 10:48:03;;;;;;;16.70;12.75;;;30.00;40.30;;;;;;5052869;28;20511;-67
2022/03/21 10:50:34;;;;;;;16.50;13.75;;;29.80;40.00;;;;;;5053841;28;20017;-66
2022/03/21 10:53:10;;;;;;;17.33;13.63;;;28.50;40.40;;;;;;5054122;28;20059;-67
2022/03/21 10:55:37;;;;;;;16.45;13.23;;;27.70;41.40;;;;;;5053598;28;20055;-67
2022/03/21 10:58:03;;;;;;;15.25;13.10;;;28.20;41.50;;;;;;5053812;28;20037;-67
2022/03/21 11:00:29;;;;;;;16.13;12.88;;;28.70;40.50;;;;;;5054385;28;20025;-67
2022/03/21 11:02:56;;;;;;;14.95;13.35;;;27.60;41.20;;;;;;5052203;28;20075;-67
2022/03/21 11:05:23;;;;;;;15.23;12.68;;;27.30;41.70;;;;;;5053329;28;20433;-68
2022/03/21 11:07:50;;;;;;;14.35;12.20;;;28.10;41.30;;;;;;5053167;28;20366;-67
2022/03/21 11:10:16;;;;;;;20.92;13.23;;;27.40;41.00;;;;;;5053730;28;20074;-67
2022/03/21 11:12:43;;;;;;;14.40;12.15;;;25.40;42.10;;;;;;5053531;28;20036;-67
2022/03/21 11:15:10;;;;;;;14.60;12.70;;;24.10;43.90;;;;;;5053417;28;20021;-67
2022/03/21 11:17:36;;;;;;;18.08;13.00;;;23.30;45.20;;;;;;5054025;28;20029;-66
2022/03/21 11:20:04;;;;;;;15.40;13.02;;;22.30;46.20;;;;;;5054262;28;20024;-66
2022/03/21 11:22:29;;;;;;;15.82;12.35;;;21.70;47.40;;;;;;5054603;28;20024;-66
2022/03/21 11:25:02;;;;;;;;;;;20.80;48.40;;;;;;5055757;28;20079;-66
2022/03/21 11:27:47;;;;;;;16.20;12.73;;;20.10;49.60;;;;;;5055836;28;19912;-66
2022/03/21 11:30:49;;;;;;;19.55;13.25;;;19.80;50.50;;;;;;5056571;28;20023;-66
2022/03/21 11:33:38;;;;;;;16.83;12.77;;;19.70;50.50;;;;;;5057141;28;20032;-67
2022/03/21 11:36:10;;;;;;;17.75;12.57;;;19.10;51.30;;;;;;5054726;28;20096;-64
2022/03/21 11:38:47;;;;;;;17.75;11.82;;;18.80;52.20;;;;;;5057217;28;20363;-68
2022/03/21 11:41:21;;;;;;;;;;;18.40;52.80;;;;;;5058106;28;20040;-67
2022/03/21 11:44:06;;;;;;;19.77;10.65;;;17.80;54.00;;;;;;5057755;28;19962;-66
2022/03/21 11:46:34;;;;;;;14.40;10.57;;;17.50;54.60;;;;;;5055542;28;20071;-67
2022/03/21 11:49:16;;;;;;;18.80;11.40;;;17.50;54.90;;;;;;5055296;28;20036;-66
2022/03/21 11:51:43;;;;;;;17.50;11.50;;;17.30;55.60;;;;;;5055345;28;20107;-67
2022/03/21 11:54:25;;;;;;;18.92;11.02;;;17.20;55.30;;;;;;5054859;28;20020;-67
2022/03/21 11:57:02;;;;;;;16.92;10.63;;;17.10;55.60;;;;;;5053815;28;20029;-66
2022/03/21 11:59:38;;;;;;;14.90;9.98;;;17.00;55.70;;;;;;5055655;28;20032;-67
2022/03/21 12:02:10;;;;;;;18.60;9.55;;;17.10;55.90;;;;;;5058235;28;20028;-67
2022/03/21 12:04:39;;;;;;;15.73;9.93;;;16.90;55.80;;;;;;5057423;28;20017;-66
2022/03/21 12:07:14;;;;;;;14.93;9.10;;;16.90;56.20;;;;;;5057947;28;20028;-66
2022/03/21 12:10:02;;;;;;;17.33;10.13;;;17.10;56.00;;;;;;5060275;28;20029;-68
2022/03/21 12:12:39;;;;;;;27.05;10.05;;;17.10;55.90;;;;;;5057803;28;20071;-66
2022/03/21 12:15:16;;;;;;;14.43;9.25;;;17.10;56.00;;;;;;5057096;28;20059;-67
2022/03/21 12:17:49;;;;;;;;;;;17.00;56.00;;;;;;5057408;28;20482;-66
2022/03/21 12:20:18;;;;;;;14.82;9.32;;;17.10;55.80;;;;;;5057589;28;20258;-68
2022/03/21 12:22:47;;;;;;;16.52;9.60;;;17.30;56.00;;;;;;5058291;28;20466;-66
2022/03/21 12:25:38;;;;;;;16.02;9.70;;;17.30;55.70;;;;;;5058281;28;20029;-66
2022/03/21 12:31:39;;;;;;;12.38;8.20;;;17.30;56.20;;;;;;5057175;28;20051;-66
2022/03/21 12:34:50;;;;;;;17.40;9.85;;;17.50;55.70;;;;;;5053236;28;20062;-66
2022/03/21 12:37:38;;;;;;;16.88;10.68;;;17.50;55.80;;;;;;5052965;28;20033;-66
2022/03/21 12:40:09;;;;;;;13.93;8.98;;;17.40;56.20;;;;;;5057513;28;20386;-66
2022/03/21 12:42:40;;;;;;;14.90;9.77;;;17.50;55.80;;;;;;5055778;28;20021;-66
2022/03/21 12:45:07;;;;;;;14.65;9.30;;;17.40;56.40;;;;;;5054201;28;20445;-66
2022/03/21 12:47:35;;;;;;;14.30;9.23;;;17.50;56.10;;;;;;5055862;28;20450;-67
2022/03/21 12:50:01;;;;;;;15.68;9.88;;;17.60;55.80;;;;;;5055605;28;20104;-67
2022/03/21 12:52:31;;;;;;;15.25;9.30;;;17.70;55.70;;;;;;5055696;28;20086;-67
2022/03/21 12:54:58;;;;;;;16.10;9.82;;;17.70;55.80;;;;;;5055879;28;20040;-67
2022/03/21 12:57:23;;;;;;;;;;;17.60;55.90;;;;;;5054883;28;20048;-67
2022/03/21 12:59:49;;;;;;;17.98;10.27;;;17.60;56.10;;;;;;5055689;28;19905;-65
2022/03/21 13:02:25;;;;;;;19.45;10.80;;;17.60;56.00;;;;;;5055903;28;20029;-66
2022/03/21 13:10:34;;;;;;;15.60;9.90;;;17.50;56.30;;;;;;5055246;28;20074;-67
2022/03/21 13:13:01;;;;;;;15.30;9.70;;;17.40;56.60;;;;;;5055411;28;20049;-67